Time;durP1;ratioP1;P1;durP2;ratioP2;P2;SDS_P1;SDS_P2;PMS_P1;PMS_P2;Temp;Humidity;BMP_temperature;BMP_pressure;BME280_temperature;BME280_humidity;BME280_pressure;Samples;Min_cycle;Max_cycle;Signal;HPM_P1;HPM_P2
2022/08/05 00:00:45;;;;;;;6.65;2.95;;;19.30;99.90;;;;;;5049187;28;20025;-85
2022/08/05 00:03:11;;;;;;;5.88;2.17;;;19.30;99.90;;;;;;5047841;28;20044;-85
2022/08/05 00:05:36;;;;;;;5.38;2.45;;;19.20;99.90;;;;;;5050783;28;20029;-85
2022/08/05 00:08:02;;;;;;;6.15;3.28;;;19.20;99.90;;;;;;5050219;28;20071;-85
2022/08/05 00:10:28;;;;;;;5.85;1.95;;;19.20;99.90;;;;;;5050892;28;20357;-85
2022/08/05 00:12:53;;;;;;;8.50;2.40;;;19.20;99.90;;;;;;5040626;28;20444;-86
2022/08/05 00:15:19;;;;;;;5.63;1.98;;;19.20;99.90;;;;;;5047061;28;20521;-86
2022/08/05 00:17:44;;;;;;;4.35;2.15;;;19.20;99.90;;;;;;5046030;28;20020;-85
2022/08/05 00:20:10;;;;;;;5.32;2.35;;;19.10;99.90;;;;;;5050677;28;20052;-86
2022/08/05 00:22:35;;;;;;;6.03;2.20;;;19.10;99.90;;;;;;5046169;28;20075;-86
2022/08/05 00:25:02;;;;;;;7.82;2.60;;;19.00;99.90;;;;;;5050323;28;20038;-86
2022/08/05 00:27:29;;;;;;;7.07;1.95;;;19.00;99.90;;;;;;5046913;28;20033;-86
2022/08/05 00:29:55;;;;;;;4.38;2.05;;;19.00;99.90;;;;;;5046639;28;20512;-86
2022/08/05 00:32:20;;;;;;;6.07;1.88;;;19.00;99.90;;;;;;5048331;28;20030;-84
2022/08/05 00:34:46;;;;;;;6.15;2.10;;;18.90;99.90;;;;;;5047334;28;20036;-86
2022/08/05 00:37:11;;;;;;;8.30;1.85;;;18.90;99.90;;;;;;5033696;28;20024;-86
2022/08/05 00:39:37;;;;;;;7.00;1.60;;;19.00;99.90;;;;;;5042796;28;20025;-85
2022/08/05 00:42:03;;;;;;;7.93;1.60;;;18.90;99.90;;;;;;5052940;28;20373;-86
2022/08/05 00:44:28;;;;;;;5.00;2.05;;;18.90;99.90;;;;;;5046476;28;20124;-86
2022/08/05 00:46:54;;;;;;;5.32;1.63;;;18.90;99.90;;;;;;5051724;28;20053;-87
2022/08/05 00:49:19;;;;;;;3.92;1.48;;;18.90;99.90;;;;;;5047850;28;20029;-86
2022/08/05 00:51:45;;;;;;;4.32;1.80;;;18.90;99.90;;;;;;5053244;28;20027;-87
2022/08/05 00:54:14;;;;;;;6.38;2.28;;;18.90;99.90;;;;;;5046578;28;20069;-86
2022/08/05 00:56:39;;;;;;;5.60;1.98;;;18.80;99.90;;;;;;5034023;28;20066;-85
2022/08/05 00:59:06;;;;;;;5.45;2.03;;;18.90;99.90;;;;;;5046185;28;20057;-85
2022/08/05 01:01:31;;;;;;;7.78;2.55;;;18.80;99.90;;;;;;5047455;28;20021;-85
2022/08/05 01:03:57;;;;;;;6.68;2.35;;;18.80;99.90;;;;;;5049176;28;20060;-85
2022/08/05 01:06:22;;;;;;;6.88;2.28;;;18.80;99.90;;;;;;5037082;28;20033;-85
2022/08/05 01:08:48;;;;;;;4.10;2.13;;;18.80;99.90;;;;;;5052302;28;20032;-85
2022/08/05 01:11:25;;;;;;;8.43;2.40;;;18.80;99.90;;;;;;5051202;28;20116;-85
2022/08/05 01:13:56;;;;;;;7.53;2.40;;;18.80;99.90;;;;;;5043581;28;20028;-87
2022/08/05 01:16:37;;;;;;;5.28;2.42;;;18.80;99.90;;;;;;5052921;28;20021;-86
2022/08/05 01:19:23;;;;;;;4.93;2.17;;;18.80;99.90;;;;;;5052361;28;20029;-84
2022/08/05 01:22:07;;;;;;;5.20;2.53;;;18.80;99.90;;;;;;5052484;28;20488;-86
2022/08/05 01:25:17;;;;;;;6.82;2.42;;;18.80;99.90;;;;;;5051062;28;20094;-86
2022/08/05 01:28:16;;;;;;;3.75;2.03;;;18.70;99.90;;;;;;5023615;28;20037;-86
2022/08/05 01:30:55;;;;;;;5.13;2.17;;;18.70;99.90;;;;;;5035260;28;20021;-86
2022/08/05 01:33:24;;;;;;;4.03;2.08;;;18.70;99.90;;;;;;5050857;28;20036;-86
2022/08/05 01:35:52;;;;;;;6.25;2.30;;;18.70;99.90;;;;;;5052614;28;20025;-86
2022/08/05 01:38:19;;;;;;;6.10;2.67;;;18.70;99.90;;;;;;5050132;28;20028;-85
2022/08/05 01:40:46;;;;;;;6.80;2.38;;;18.70;99.90;;;;;;5038784;28;20032;-85
2022/08/05 01:43:12;;;;;;;5.25;2.60;;;18.70;99.90;;;;;;5051617;28;20037;-85
2022/08/05 01:45:38;;;;;;;6.25;2.78;;;18.70;99.90;;;;;;5052659;28;20017;-85
2022/08/05 01:48:06;;;;;;;5.15;2.28;;;18.70;99.90;;;;;;5052514;28;20053;-86
2022/08/05 01:50:39;;;;;;;5.72;2.33;;;18.60;99.90;;;;;;5050539;28;20021;-86
2022/08/05 01:53:15;;;;;;;9.18;2.65;;;18.70;99.90;;;;;;5039231;28;20031;-85
2022/08/05 01:55:48;;;;;;;7.07;2.35;;;18.60;99.90;;;;;;5050525;28;20029;-86
2022/08/05 01:58:15;;;;;;;9.88;2.92;;;18.70;99.90;;;;;;5053600;28;20457;-86
2022/08/05 02:00:45;;;;;;;6.50;2.10;;;18.60;99.90;;;;;;5051148;28;20028;-86
2022/08/05 02:03:19;;;;;;;6.55;2.47;;;18.70;99.90;;;;;;5051077;28;20121;-86
2022/08/05 02:05:46;;;;;;;5.97;2.33;;;18.70;99.90;;;;;;5047834;28;20017;-85
2022/08/05 02:08:12;;;;;;;5.82;2.75;;;18.60;99.90;;;;;;5049346;28;20033;-84
2022/08/05 02:10:47;;;;;;;7.88;2.63;;;18.60;99.90;;;;;;5044310;28;20095;-84
2022/08/05 02:13:31;;;;;;;7.40;2.53;;;18.60;99.90;;;;;;5043624;28;20017;-85
2022/08/05 02:16:20;;;;;;;5.97;2.45;;;18.70;99.90;;;;;;5044037;28;20032;-85
2022/08/05 02:19:01;;;;;;;5.28;2.08;;;18.70;99.90;;;;;;5052436;28;20104;-85
2022/08/05 02:21:35;;;;;;;5.77;2.47;;;18.60;99.90;;;;;;5043827;28;20132;-85
2022/08/05 02:24:07;;;;;;;8.15;2.72;;;18.60;99.90;;;;;;5033394;28;20303;-85
2022/08/05 02:26:38;;;;;;;7.57;2.08;;;18.60;99.90;;;;;;5045775;28;20025;-86
2022/08/05 02:29:06;;;;;;;4.90;2.20;;;18.60;99.90;;;;;;5050905;28;20044;-86
2022/08/05 02:31:35;;;;;;;6.47;2.55;;;18.50;99.90;;;;;;5046344;28;20338;-84
2022/08/05 02:34:07;;;;;;;7.43;2.55;;;18.50;99.90;;;;;;5038451;28;20052;-84
2022/08/05 02:36:34;;;;;;;;;;;18.50;99.90;;;;;;5052351;28;20029;-85
2022/08/05 02:39:02;;;;;;;5.93;2.40;;;18.50;99.90;;;;;;5041207;28;20392;-86
2022/08/05 02:41:29;;;;;;;4.70;2.30;;;18.50;99.90;;;;;;5033926;28;20044;-85
2022/08/05 02:43:57;;;;;;;7.72;2.40;;;18.50;99.90;;;;;;5050764;28;20032;-85
2022/08/05 02:46:23;;;;;;;5.60;2.20;;;18.50;99.90;;;;;;5050762;28;20041;-85
2022/08/05 02:48:50;;;;;;;8.65;2.83;;;18.50;99.90;;;;;;5051345;28;20427;-86
2022/08/05 02:51:17;;;;;;;7.88;2.90;;;18.40;99.90;;;;;;5053184;28;20033;-86
2022/08/05 02:53:43;;;;;;;7.72;3.05;;;18.40;99.90;;;;;;5048252;28;20072;-86
2022/08/05 02:56:10;;;;;;;8.27;3.17;;;18.40;99.90;;;;;;5037920;28;20051;-86
2022/08/05 02:58:42;;;;;;;7.35;3.30;;;18.40;99.90;;;;;;5035305;28;20496;-85
2022/08/05 03:01:16;;;;;;;8.82;2.97;;;18.40;99.90;;;;;;5046979;28;20115;-86
2022/08/05 03:03:43;;;;;;;6.00;2.40;;;18.40;99.90;;;;;;5051525;28;20507;-86
2022/08/05 03:06:10;;;;;;;10.80;3.00;;;18.40;99.90;;;;;;5043030;28;20025;-85
2022/08/05 03:08:38;;;;;;;6.00;2.88;;;18.40;99.90;;;;;;5032494;28;20038;-84
2022/08/05 03:11:03;;;;;;;6.18;2.72;;;18.40;99.90;;;;;;5051020;28;20036;-85
2022/08/05 03:13:29;;;;;;;6.38;2.63;;;18.50;99.90;;;;;;5052444;28;20029;-85
2022/08/05 03:15:54;;;;;;;5.85;2.58;;;18.50;99.90;;;;;;5039556;28;20436;-85
2022/08/05 03:18:20;;;;;;;10.23;2.90;;;18.50;99.90;;;;;;5055905;28;20060;-85
2022/08/05 03:20:46;;;;;;;4.93;2.85;;;18.50;99.90;;;;;;5050770;28;20021;-85
2022/08/05 03:23:12;;;;;;;5.43;2.92;;;18.50;99.90;;;;;;5052001;28;20025;-85
2022/08/05 03:25:38;;;;;;;6.28;3.00;;;18.50;99.90;;;;;;5047483;28;20036;-85
2022/08/05 03:28:05;;;;;;;8.18;3.22;;;18.40;99.90;;;;;;5040996;28;20116;-85
2022/08/05 03:30:32;;;;;;;10.00;3.58;;;18.40;99.90;;;;;;5038882;28;20079;-85
2022/08/05 03:33:02;;;;;;;5.97;2.92;;;18.40;99.90;;;;;;5052007;28;20021;-85
2022/08/05 03:35:28;;;;;;;7.78;3.40;;;18.40;99.90;;;;;;5046827;28;20488;-85
2022/08/05 03:37:58;;;;;;;7.53;3.05;;;18.40;99.90;;;;;;5047200;28;20068;-85
2022/08/05 03:40:25;;;;;;;5.80;2.53;;;18.40;99.90;;;;;;5049789;28;20029;-85
2022/08/05 03:42:50;;;;;;;5.93;2.92;;;18.40;99.90;;;;;;5046103;28;20034;-85
2022/08/05 03:45:16;;;;;;;9.00;3.13;;;18.40;99.90;;;;;;5032299;28;20106;-85
2022/08/05 03:47:42;;;;;;;7.57;2.95;;;18.40;99.90;;;;;;5045928;28;20048;-85
2022/08/05 03:50:08;;;;;;;8.13;3.40;;;18.40;99.90;;;;;;5050199;28;20362;-85
2022/08/05 03:52:40;;;;;;;8.85;2.70;;;18.40;99.90;;;;;;5050442;28;20542;-84
2022/08/05 03:55:13;;;;;;;6.45;2.30;;;18.40;99.90;;;;;;5045345;28;20075;-85
2022/08/05 03:57:42;;;;;;;7.72;2.97;;;18.40;99.90;;;;;;5047666;28;20393;-85
2022/08/05 04:00:13;;;;;;;7.85;2.83;;;18.40;99.90;;;;;;5048816;28;20028;-84
2022/08/05 04:02:47;;;;;;;6.10;3.13;;;18.40;99.90;;;;;;5046665;28;20035;-84
2022/08/05 04:05:14;;;;;;;9.00;2.67;;;18.40;99.90;;;;;;5049929;28;20132;-84
2022/08/05 04:07:40;;;;;;;6.43;2.75;;;18.40;99.90;;;;;;5046493;28;20114;-84
2022/08/05 04:10:07;;;;;;;6.45;2.60;;;18.40;99.90;;;;;;5037145;28;20021;-84
2022/08/05 04:12:33;;;;;;;7.35;3.10;;;18.30;99.90;;;;;;5030895;28;20053;-85
2022/08/05 04:14:59;;;;;;;6.07;2.72;;;18.30;99.90;;;;;;5052478;28;20052;-84
2022/08/05 04:17:24;;;;;;;8.85;3.47;;;18.30;99.90;;;;;;5054972;28;20051;-85
2022/08/05 04:19:50;;;;;;;6.22;3.05;;;18.30;99.90;;;;;;5053608;28;20060;-85
2022/08/05 04:22:15;;;;;;;9.48;3.28;;;18.20;99.90;;;;;;5054110;28;20056;-85
2022/08/05 04:24:43;;;;;;;5.45;3.58;;;18.20;99.90;;;;;;5050858;28;20121;-85
2022/08/05 04:27:09;;;;;;;7.63;3.70;;;18.10;99.90;;;;;;5043058;28;20576;-85
2022/08/05 04:29:35;;;;;;;9.57;3.65;;;18.10;99.90;;;;;;5051590;28;20115;-84
2022/08/05 04:32:00;;;;;;;4.63;2.55;;;18.10;99.90;;;;;;5053546;28;20057;-85
2022/08/05 04:34:26;;;;;;;9.43;3.47;;;18.00;99.90;;;;;;5053575;28;20064;-84
2022/08/05 04:36:51;;;;;;;6.85;2.95;;;18.00;99.90;;;;;;5052868;28;20031;-84
2022/08/05 04:39:17;;;;;;;7.40;3.28;;;18.00;99.90;;;;;;5053485;28;20384;-85
2022/08/05 04:41:43;;;;;;;7.50;2.90;;;18.00;99.90;;;;;;5056444;28;20026;-85
2022/08/05 04:44:08;;;;;;;5.90;2.90;;;18.00;99.90;;;;;;5051658;28;20037;-85
2022/08/05 04:46:34;;;;;;;9.35;3.40;;;18.00;99.90;;;;;;5049931;28;20041;-84
2022/08/05 04:48:59;;;;;;;6.45;2.50;;;18.00;99.90;;;;;;5050566;28;20040;-84
2022/08/05 04:51:25;;;;;;;5.60;2.42;;;18.00;99.90;;;;;;5057179;28;20029;-85
2022/08/05 04:53:50;;;;;;;6.32;3.03;;;18.10;99.90;;;;;;5053995;28;20120;-85
2022/08/05 04:56:16;;;;;;;6.07;2.85;;;18.10;99.90;;;;;;5051947;28;20036;-85
2022/08/05 04:58:41;;;;;;;6.72;2.72;;;18.10;99.90;;;;;;5053239;28;20453;-85
2022/08/05 05:01:07;;;;;;;7.47;2.55;;;18.10;99.90;;;;;;5049021;28;20024;-85
2022/08/05 05:03:33;;;;;;;5.75;2.22;;;18.20;99.90;;;;;;5036361;28;20525;-85
2022/08/05 05:05:58;;;;;;;8.48;2.83;;;18.20;99.90;;;;;;5053424;28;20017;-85
2022/08/05 05:08:24;;;;;;;5.38;2.85;;;18.20;99.90;;;;;;5048742;28;20957;-85
2022/08/05 05:10:49;;;;;;;6.95;2.60;;;18.20;99.90;;;;;;5052108;28;20029;-86
2022/08/05 05:13:17;;;;;;;7.80;2.17;;;18.20;99.90;;;;;;5053791;28;20032;-86
2022/08/05 05:15:43;;;;;;;5.55;2.33;;;18.20;99.90;;;;;;5052075;28;20025;-86
2022/08/05 05:18:15;;;;;;;7.22;3.13;;;18.20;99.90;;;;;;5048577;28;20025;-85
2022/08/05 05:20:45;;;;;;;7.57;2.10;;;18.20;99.90;;;;;;5046153;28;20497;-85
2022/08/05 05:23:12;;;;;;;8.95;2.65;;;18.20;99.90;;;;;;5043300;28;20476;-85
2022/08/05 05:25:39;;;;;;;5.50;2.55;;;18.30;99.90;;;;;;5050107;28;20041;-87
2022/08/05 05:28:05;;;;;;;7.45;2.10;;;18.20;99.90;;;;;;5050011;28;20029;-86
2022/08/05 05:30:30;;;;;;;7.80;2.30;;;18.20;99.90;;;;;;5046529;28;20032;-86
2022/08/05 05:32:57;;;;;;;11.82;3.00;;;18.20;99.90;;;;;;5033208;28;20021;-86
2022/08/05 05:35:22;;;;;;;6.25;2.25;;;18.30;99.90;;;;;;5038075;28;20029;-87
2022/08/05 05:37:51;;;;;;;7.47;2.55;;;18.30;99.90;;;;;;5053006;28;20063;-87
2022/08/05 05:40:18;;;;;;;8.43;2.20;;;18.30;99.90;;;;;;5049570;28;20101;-87
2022/08/05 05:42:45;;;;;;;4.18;2.13;;;18.30;99.90;;;;;;5035783;28;20108;-87
2022/08/05 05:45:10;;;;;;;10.48;2.58;;;18.30;99.90;;;;;;5044186;28;20041;-87
2022/08/05 05:47:36;;;;;;;4.57;2.40;;;18.40;99.90;;;;;;5055919;28;20045;-86
2022/08/05 05:50:02;;;;;;;6.28;2.00;;;18.30;99.90;;;;;;5054270;28;20033;-87
2022/08/05 05:52:28;;;;;;;5.40;2.05;;;18.30;99.90;;;;;;5052124;28;20025;-87
2022/08/05 05:54:53;;;;;;;4.32;2.03;;;18.30;99.90;;;;;;5051319;28;20025;-87
2022/08/05 05:57:19;;;;;;;7.72;2.70;;;18.30;99.90;;;;;;5055233;28;20016;-87
2022/08/05 05:59:45;;;;;;;7.78;2.10;;;18.30;99.90;;;;;;5048977;28;20037;-87
2022/08/05 06:02:10;;;;;;;8.68;2.20;;;18.30;99.90;;;;;;5043169;28;20029;-87
2022/08/05 06:04:36;;;;;;;7.97;2.08;;;18.40;99.90;;;;;;5043549;28;20052;-87
2022/08/05 06:07:01;;;;;;;8.73;2.40;;;18.40;99.90;;;;;;5045990;28;20021;-89
2022/08/05 06:09:27;;;;;;;6.20;2.00;;;18.50;99.90;;;;;;5048698;28;20563;-87
2022/08/05 06:11:53;;;;;;;3.97;1.80;;;18.50;99.90;;;;;;5033668;28;20436;-87
2022/08/05 06:14:18;;;;;;;6.38;2.80;;;18.50;99.90;;;;;;5048825;28;20033;-87
2022/08/05 06:16:44;;;;;;;8.20;2.20;;;18.60;99.90;;;;;;5053633;28;20033;-87
2022/08/05 06:19:09;;;;;;;8.70;2.13;;;18.60;99.90;;;;;;5053257;28;20023;-87
2022/08/05 06:21:36;;;;;;;7.72;2.22;;;18.70;99.90;;;;;;5052414;28;20032;-87
2022/08/05 06:24:01;;;;;;;7.22;1.80;;;18.80;99.90;;;;;;5048788;28;20124;-87
2022/08/05 06:26:27;;;;;;;6.25;2.15;;;18.80;99.90;;;;;;5032875;28;20426;-87
2022/08/05 06:28:52;;;;;;;6.13;2.20;;;18.80;99.90;;;;;;5032552;28;20083;-87
2022/08/05 06:31:18;;;;;;;5.65;1.70;;;18.90;99.90;;;;;;5032631;28;20107;-87
2022/08/05 06:33:44;;;;;;;6.28;1.80;;;18.80;99.90;;;;;;5040299;28;20068;-87
2022/08/05 06:36:09;;;;;;;5.05;2.17;;;18.80;99.90;;;;;;5032987;28;20178;-87
2022/08/05 06:38:35;;;;;;;6.70;2.05;;;18.80;99.90;;;;;;5069974;28;20033;-87
2022/08/05 06:41:00;;;;;;;6.18;1.63;;;18.80;99.90;;;;;;5072602;28;20392;-87
2022/08/05 06:43:26;;;;;;;9.88;2.22;;;18.80;99.90;;;;;;5060125;28;20041;-88
2022/08/05 06:45:51;;;;;;;8.55;1.70;;;18.90;99.90;;;;;;5052928;28;20025;-87
2022/08/05 06:48:17;;;;;;;7.53;1.73;;;18.90;99.90;;;;;;5059342;28;20381;-87
2022/08/05 06:50:42;;;;;;;6.80;1.80;;;19.00;99.90;;;;;;5048590;28;20045;-88
2022/08/05 06:53:08;;;;;;;4.75;1.20;;;19.00;99.90;;;;;;5032465;28;20366;-88
2022/08/05 06:55:34;;;;;;;7.25;1.95;;;19.10;99.90;;;;;;5032356;28;20025;-87
2022/08/05 06:57:59;;;;;;;6.30;1.80;;;19.20;99.90;;;;;;5048667;28;20033;-87
2022/08/05 07:00:24;;;;;;;4.35;1.30;;;19.20;99.90;;;;;;5048642;28;20021;-88
2022/08/05 07:02:50;;;;;;;4.72;1.40;;;19.40;99.90;;;;;;5032788;28;20037;-88
2022/08/05 07:05:16;;;;;;;6.53;1.35;;;19.40;99.90;;;;;;5052210;28;20029;-87
2022/08/05 07:07:43;;;;;;;5.47;0.93;;;19.50;99.90;;;;;;5036711;28;20025;-87
2022/08/05 07:10:09;;;;;;;9.18;1.40;;;19.50;99.90;;;;;;5031887;28;20076;-87
2022/08/05 07:18:04;;;;;;;5.13;0.98;;;19.80;99.90;;;;;;5033334;28;20040;-87
2022/08/05 07:20:30;;;;;;;3.85;1.25;;;19.90;99.90;;;;;;5048744;28;20021;-87
2022/08/05 07:22:55;;;;;;;5.15;1.00;;;19.90;99.90;;;;;;5048095;28;20029;-87
2022/08/05 07:25:21;;;;;;;4.20;1.00;;;19.90;99.90;;;;;;5048689;28;20025;-87
2022/08/05 07:27:48;;;;;;;3.50;0.65;;;20.00;99.90;;;;;;5051085;28;20024;-87
2022/08/05 07:30:14;;;;;;;3.53;0.80;;;20.00;99.90;;;;;;5051883;28;20028;-87
2022/08/05 07:32:39;;;;;;;4.97;0.70;;;20.10;99.90;;;;;;5050574;28;20029;-87
2022/08/05 07:35:09;;;;;;;5.32;0.70;;;20.20;99.90;;;;;;5051593;28;20025;-87
2022/08/05 07:37:35;;;;;;;5.80;1.10;;;20.30;99.90;;;;;;5047774;28;20164;-86
2022/08/05 07:40:01;;;;;;;5.47;1.25;;;20.40;99.90;;;;;;5048823;28;20055;-88
2022/08/05 07:42:26;;;;;;;4.38;0.70;;;20.40;99.90;;;;;;5052070;28;20386;-90
2022/08/05 07:44:52;;;;;;;4.75;0.63;;;20.60;99.90;;;;;;5051944;28;20037;-88
2022/08/05 07:47:17;;;;;;;6.50;0.98;;;20.60;99.90;;;;;;5040932;28;20489;-88
2022/08/05 07:49:43;;;;;;;4.45;0.70;;;20.60;99.90;;;;;;5060418;28;20392;-88
2022/08/05 07:52:08;;;;;;;5.82;0.70;;;20.70;99.90;;;;;;5074995;28;20020;-88
2022/08/05 07:54:34;;;;;;;4.20;0.60;;;20.80;99.90;;;;;;5071925;28;20024;-87
2022/08/05 07:57:01;;;;;;;3.25;0.50;;;20.80;99.90;;;;;;5040932;28;20025;-89
2022/08/05 07:59:27;;;;;;;7.88;0.60;;;20.90;99.90;;;;;;5068957;28;20124;-88
2022/08/05 08:01:52;;;;;;;3.53;0.60;;;20.90;99.90;;;;;;5074537;28;20044;-88
2022/08/05 08:04:18;;;;;;;3.63;0.70;;;21.10;99.90;;;;;;5057803;28;20033;-88
2022/08/05 08:06:44;;;;;;;5.40;0.60;;;21.10;99.90;;;;;;5054911;28;20032;-87
2022/08/05 08:09:10;;;;;;;3.47;0.40;;;21.20;99.90;;;;;;5065932;28;20035;-89
2022/08/05 08:11:36;;;;;;;3.25;0.40;;;21.20;99.90;;;;;;5074867;28;20020;-88
2022/08/05 08:14:01;;;;;;;2.75;0.50;;;21.20;99.90;;;;;;5070748;28;20025;-88
2022/08/05 08:16:27;;;;;;;1.98;0.40;;;21.30;99.90;;;;;;5055264;28;20040;-88
2022/08/05 08:18:52;;;;;;;4.25;0.40;;;21.20;99.90;;;;;;5060587;28;20024;-88
2022/08/05 08:21:18;;;;;;;4.22;0.50;;;21.30;99.90;;;;;;5074646;28;20020;-88
2022/08/05 08:23:43;;;;;;;2.03;0.47;;;21.30;99.90;;;;;;5074368;28;20492;-88
2022/08/05 08:26:09;;;;;;;5.45;0.50;;;21.20;99.90;;;;;;5074383;28;20392;-89
2022/08/05 08:28:34;;;;;;;8.65;0.80;;;21.30;99.90;;;;;;5072475;28;20127;-88
2022/08/05 08:31:00;;;;;;;6.20;0.45;;;21.40;99.90;;;;;;5070477;28;20380;-89
2022/08/05 08:33:25;;;;;;;2.35;0.60;;;21.60;99.90;;;;;;5054889;28;20025;-88
2022/08/05 08:35:51;;;;;;;2.95;0.50;;;21.90;99.90;;;;;;5053985;28;20025;-89
2022/08/05 08:38:16;;;;;;;4.35;0.52;;;22.10;99.90;;;;;;5057172;28;20038;-88
2022/08/05 08:40:42;;;;;;;4.15;0.60;;;22.30;99.90;;;;;;5074823;28;20016;-89
2022/08/05 08:43:12;;;;;;;3.15;0.40;;;22.30;99.90;;;;;;5074566;28;20021;-89
2022/08/05 08:45:38;;;;;;;2.15;0.57;;;22.30;99.90;;;;;;5074212;28;20108;-89
2022/08/05 08:48:05;;;;;;;2.40;0.40;;;22.20;99.90;;;;;;5069931;28;20033;-89
2022/08/05 08:50:34;;;;;;;5.70;0.93;;;22.10;99.90;;;;;;5074302;28;20092;-90
2022/08/05 08:53:04;;;;;;;4.20;0.80;;;22.00;99.90;;;;;;5074075;28;20017;-89
2022/08/05 08:55:30;;;;;;;3.55;0.70;;;21.80;99.90;;;;;;5064475;28;20484;-89
2022/08/05 08:57:57;;;;;;;4.72;0.73;;;21.70;99.90;;;;;;5055121;28;20504;-89
2022/08/05 09:00:23;;;;;;;1.52;0.40;;;21.50;99.90;;;;;;5075329;28;20033;-89
2022/08/05 09:02:51;;;;;;;5.20;0.40;;;21.50;99.90;;;;;;5056407;28;20028;-89
2022/08/05 09:05:16;;;;;;;3.00;0.30;;;21.50;99.90;;;;;;5054989;28;20028;-88
2022/08/05 09:07:42;;;;;;;1.35;0.50;;;21.60;99.90;;;;;;5053704;28;20020;-88
2022/08/05 09:10:08;;;;;;;4.75;0.40;;;21.80;99.90;;;;;;5067531;28;20035;-88
2022/08/05 09:12:34;;;;;;;1.13;0.30;;;22.00;99.90;;;;;;5074514;28;20020;-88
2022/08/05 09:15:02;;;;;;;1.85;0.30;;;22.10;99.90;;;;;;5073691;28;20024;-88
2022/08/05 09:17:28;;;;;;;1.00;0.40;;;22.30;99.90;;;;;;5070679;28;20067;-88
2022/08/05 09:19:54;;;;;;;2.72;0.38;;;22.40;99.70;;;;;;5034083;28;20087;-87
2022/08/05 09:22:20;;;;;;;1.38;0.20;;;22.50;99.40;;;;;;5039854;28;20484;-87
2022/08/05 09:24:57;;;;;;;1.80;0.20;;;22.50;99.10;;;;;;5053724;28;20040;-87
2022/08/05 09:27:32;;;;;;;0.82;0.13;;;22.50;98.60;;;;;;5053795;28;20075;-87
2022/08/05 09:29:58;;;;;;;1.23;0.20;;;22.50;97.80;;;;;;5034743;28;20392;-87
2022/08/05 09:32:35;;;;;;;3.00;0.20;;;22.60;97.50;;;;;;5033828;28;20028;-87
2022/08/05 09:35:15;;;;;;;0.70;0.15;;;22.60;96.80;;;;;;5052251;28;20025;-87
2022/08/05 09:37:51;;;;;;;1.35;0.22;;;22.70;95.70;;;;;;5053071;28;20036;-87
2022/08/05 09:40:33;;;;;;;2.08;0.13;;;22.50;95.30;;;;;;5053376;28;20071;-87
2022/08/05 09:42:59;;;;;;;1.07;0.20;;;22.50;95.30;;;;;;5053500;28;20107;-87
2022/08/05 09:45:39;;;;;;;1.15;0.30;;;22.50;94.90;;;;;;5053505;28;20029;-86
2022/08/05 09:48:28;;;;;;;0.57;0.10;;;22.70;94.20;;;;;;5059882;28;20393;-88
2022/08/05 09:50:57;;;;;;;1.35;0.10;;;22.70;92.60;;;;;;5073056;28;20430;-87
2022/08/05 09:53:23;;;;;;;0.70;0.10;;;22.70;92.60;;;;;;5073075;28;20432;-88
2022/08/05 09:55:55;;;;;;;1.08;0.10;;;22.80;92.40;;;;;;5069883;28;20059;-88
2022/08/05 09:58:21;;;;;;;1.40;0.20;;;22.90;91.90;;;;;;5064953;28;20060;-86
2022/08/05 10:01:01;;;;;;;2.45;0.20;;;23.00;91.80;;;;;;5061830;28;20036;-87
2022/08/05 10:03:28;;;;;;;0.65;0.10;;;23.20;90.90;;;;;;5053080;28;20421;-87
2022/08/05 10:06:05;;;;;;;2.22;0.10;;;23.20;90.00;;;;;;5052745;28;20467;-87
2022/08/05 10:08:32;;;;;;;2.03;0.20;;;23.40;88.60;;;;;;5063892;28;20431;-86
2022/08/05 10:10:58;;;;;;;3.50;0.20;;;23.50;87.00;;;;;;5072497;28;20031;-87
2022/08/05 10:13:35;;;;;;;2.92;0.10;;;23.70;84.50;;;;;;5064929;28;20025;-87
2022/08/05 10:16:03;;;;;;;0.63;0.10;;;23.80;83.30;;;;;;5053792;28;20032;-87
2022/08/05 10:18:31;;;;;;;0.73;0.10;;;24.00;81.60;;;;;;5049483;28;20087;-87
2022/08/05 10:21:06;;;;;;;2.15;0.10;;;23.90;81.30;;;;;;5033864;28;20018;-87
2022/08/05 10:23:33;;;;;;;1.38;0.20;;;23.80;80.70;;;;;;5032926;28;20034;-87
2022/08/05 10:26:01;;;;;;;1.60;0.15;;;23.90;81.00;;;;;;5033002;28;20033;-87
2022/08/05 10:28:28;;;;;;;1.40;0.10;;;24.00;79.40;;;;;;5044521;28;20029;-87
2022/08/05 10:30:54;;;;;;;0.70;0.10;;;24.00;77.70;;;;;;5060821;28;20749;-87
2022/08/05 10:33:22;;;;;;;1.13;0.10;;;24.10;76.60;;;;;;5052312;28;20020;-87
2022/08/05 10:35:52;;;;;;;0.70;0.10;;;24.10;75.30;;;;;;5052564;28;20028;-87
2022/08/05 10:38:19;;;;;;;0.95;0.10;;;24.10;75.10;;;;;;5065876;28;20035;-88
2022/08/05 10:40:48;;;;;;;0.35;0.08;;;24.20;74.00;;;;;;5072383;28;20024;-87
2022/08/05 10:43:44;;;;;;;0.50;0.10;;;24.30;73.60;;;;;;5066898;28;20021;-87
2022/08/05 10:46:12;;;;;;;1.48;0.10;;;24.30;71.00;;;;;;5052324;28;20087;-88
2022/08/05 10:48:48;;;;;;;1.05;0.10;;;24.30;70.60;;;;;;5050551;28;20036;-88
2022/08/05 10:51:17;;;;;;;0.82;0.03;;;24.20;69.90;;;;;;5052030;28;20476;-88
2022/08/05 10:53:50;;;;;;;0.65;0.10;;;24.10;69.40;;;;;;5052419;28;20021;-88
2022/08/05 10:56:23;;;;;;;2.17;0.13;;;24.10;69.70;;;;;;5052001;28;20075;-89
2022/08/05 10:58:51;;;;;;;0.77;0.10;;;24.10;69.10;;;;;;5053486;28;20032;-87
2022/08/05 11:01:17;;;;;;;2.67;0.28;;;24.10;69.70;;;;;;5039823;28;20044;-87
2022/08/05 11:04:00;;;;;;;0.40;0.10;;;24.20;69.90;;;;;;5070420;28;20039;-88
2022/08/05 11:06:26;;;;;;;0.63;0.10;;;24.60;69.30;;;;;;5052864;28;20104;-87
2022/08/05 11:09:12;;;;;;;0.70;0.03;;;24.80;69.00;;;;;;5068593;28;20124;-88
2022/08/05 11:11:40;;;;;;;1.45;0.10;;;25.00;68.40;;;;;;5072307;28;20025;-87
2022/08/05 11:14:06;;;;;;;0.52;0.00;;;25.00;67.70;;;;;;5055430;28;20068;-87
2022/08/05 11:16:32;;;;;;;0.32;0.00;;;24.90;67.80;;;;;;5051382;28;20028;-87
2022/08/05 11:19:23;;;;;;;1.05;0.10;;;24.80;67.60;;;;;;5065611;28;20040;-88
2022/08/05 11:21:48;;;;;;;1.23;0.10;;;24.80;67.00;;;;;;5061061;28;20048;-88
2022/08/05 11:24:14;;;;;;;1.48;0.10;;;24.60;65.30;;;;;;5051140;28;20060;-87
2022/08/05 11:26:39;;;;;;;1.45;0.00;;;24.60;64.70;;;;;;5051047;28;20028;-87
2022/08/05 11:29:05;;;;;;;1.00;0.10;;;24.50;63.70;;;;;;5051780;28;20151;-87
2022/08/05 11:31:31;;;;;;;0.70;0.10;;;24.60;62.60;;;;;;5050946;28;20512;-87
2022/08/05 11:33:58;;;;;;;0.73;0.10;;;24.60;62.00;;;;;;5050452;28;20028;-87
2022/08/05 11:36:46;;;;;;;2.45;0.10;;;24.70;62.30;;;;;;5052786;28;20091;-87
2022/08/05 11:39:31;;;;;;;0.82;0.10;;;24.70;61.10;;;;;;5048109;28;20477;-88
2022/08/05 11:41:57;;;;;;;3.13;0.17;;;24.70;60.80;;;;;;5051240;28;20048;-87
2022/08/05 11:44:34;;;;;;;2.22;0.10;;;24.60;60.50;;;;;;5051135;28;20033;-87
2022/08/05 11:47:00;;;;;;;0.28;0.00;;;24.50;60.60;;;;;;5052298;28;20082;-87
2022/08/05 11:49:25;;;;;;;1.20;0.10;;;24.50;60.50;;;;;;5067523;28;20028;-87
2022/08/05 11:51:54;;;;;;;0.93;0.00;;;24.30;61.40;;;;;;5071177;28;20044;-87
2022/08/05 11:54:26;;;;;;;1.33;0.25;;;24.30;61.10;;;;;;5070840;28;20052;-87
2022/08/05 11:56:53;;;;;;;2.67;0.10;;;24.30;61.80;;;;;;5051161;28;20021;-87
2022/08/05 11:59:21;;;;;;;2.35;0.10;;;24.40;62.00;;;;;;5067283;28;20028;-87
2022/08/05 12:01:53;;;;;;;1.58;0.10;;;24.50;61.50;;;;;;5071754;28;20024;-88
2022/08/05 12:04:19;;;;;;;3.42;0.10;;;24.60;61.70;;;;;;5070987;28;20043;-87
2022/08/05 12:06:45;;;;;;;2.20;0.10;;;24.70;61.70;;;;;;5071494;28;20024;-87
2022/08/05 12:09:11;;;;;;;1.23;0.00;;;24.90;61.80;;;;;;5065185;28;20116;-86
2022/08/05 12:11:37;;;;;;;0.90;0.10;;;25.20;61.50;;;;;;5070254;28;20021;-87
2022/08/05 12:14:04;;;;;;;1.70;0.30;;;25.30;61.00;;;;;;5052500;28;20021;-87
2022/08/05 12:16:35;;;;;;;2.42;0.10;;;25.20;60.60;;;;;;5052778;28;20032;-87
2022/08/05 12:19:01;;;;;;;1.45;0.10;;;25.00;61.30;;;;;;5050747;28;20123;-88
2022/08/05 12:21:29;;;;;;;1.35;0.10;;;24.80;61.10;;;;;;5051276;28;20025;-87
2022/08/05 12:24:01;;;;;;;1.08;0.10;;;24.60;61.80;;;;;;5051156;28;20489;-87
2022/08/05 12:26:52;;;;;;;2.55;0.10;;;24.40;60.70;;;;;;5051258;28;20499;-86
2022/08/05 12:29:20;;;;;;;1.17;0.10;;;24.20;59.70;;;;;;5047265;28;20067;-86
2022/08/05 12:31:55;;;;;;;1.38;0.00;;;23.90;58.40;;;;;;5050855;28;20032;-87
2022/08/05 12:34:27;;;;;;;0.70;0.00;;;23.80;59.20;;;;;;5050277;28;20055;-87
2022/08/05 12:36:54;;;;;;;4.28;0.10;;;23.70;58.60;;;;;;5031959;28;20018;-87
2022/08/05 12:39:21;;;;;;;0.95;0.10;;;23.70;59.00;;;;;;5046708;28;20044;-87
2022/08/05 12:41:47;;;;;;;0.20;0.00;;;23.90;57.60;;;;;;5051319;28;20018;-87
2022/08/05 12:44:14;;;;;;;1.13;0.10;;;24.00;57.40;;;;;;5036200;28;20398;-87
2022/08/05 12:46:41;;;;;;;0.60;0.10;;;24.00;56.30;;;;;;5053910;28;20053;-87
2022/08/05 12:49:07;;;;;;;0.95;0.10;;;24.20;56.10;;;;;;5057773;28;20029;-88
2022/08/05 12:51:55;;;;;;;0.75;0.00;;;24.20;56.00;;;;;;5034811;28;20025;-88
2022/08/05 12:54:23;;;;;;;2.95;0.13;;;24.30;56.20;;;;;;5035731;28;20059;-87
2022/08/05 12:56:51;;;;;;;6.00;0.15;;;24.30;55.90;;;;;;5054249;28;20029;-87
2022/08/05 12:59:22;;;;;;;0.57;0.10;;;24.30;56.10;;;;;;5050558;28;20029;-87